Latest Weather Observations for Kalumburu

IDD60801

Issued at 11:31 am CST Thursday 23 March 2017 (issued every 30 minutes, with the page automatically refreshed every 10 minutes)

About weather observations | Map of weather stations | Latest weather observations for NT | Other Formats
Station Details ID: 001019 Name: KALUMBURU Lat: -14.30 Lon: 126.65 Height: 23.0 m
Data from the previous 72 hours. | See also: Recent months at Kalumburu
Date/Time
CST
Temp
°C
App
Temp
°C
Dew
Point
°C
Rel
Hum
%
Delta-T
°C
Wind Press
QNH
hPa
Press
MSL
hPa
Rain since
9am
mm
Dir  Spd
km/h
Gust
km/h
Spd
kts
Gust
kts
23/11:00am 29.8 33.4 23.7 70 4.2 S 11 17 6 9 1010.6 1010.4 0.0
23/10:30am 29.6 33.2 23.8 71 4.0 S 11 17 6 9 1010.8 1010.6 0.0
23/10:00am 28.6 32.6 23.7 75 3.4 S 9 15 5 8 1010.8 1010.6 0.0
23/09:30am 28.0 32.0 23.8 78 2.9 S 9 15 5 8 1010.6 1010.4 0.0
23/09:00am 27.2 31.9 23.9 82 2.3 SSW 6 9 3 5 1010.5 1010.3 0.0
23/08:30am 26.3 30.8 24.0 87 1.6 S 7 11 4 6 1010.4 1010.2 0.0
23/08:00am 25.3 30.5 23.5 90 1.2 S 2 7 1 4 1010.6 1010.4 0.0
23/07:30am 24.6 28.9 22.7 89 1.3 S 4 6 2 3 1010.3 1010.1 0.0
23/07:00am 24.3 29.1 22.2 88 1.4 CALM 0 0 0 0 1010.2 1010.0 0.0
23/06:30am 24.6 29.2 22.5 88 1.4 SSE 2 6 1 3 1009.9 1009.7 0.0
23/06:00am 24.7 29.1 22.8 89 1.3 SSW 4 7 2 4 1009.3 1009.1 0.0
23/05:30am 24.6 29.5 22.3 87 1.5 CALM 0 0 0 0 1009.1 1008.9 0.0
23/05:00am 24.8 29.8 22.5 87 1.5 CALM 0 0 0 0 1008.8 1008.6 0.0
23/04:30am 25.5 29.9 23.4 88 1.4 SSE 6 7 3 4 1008.7 1008.5 0.0
23/04:00am 25.1 29.2 23.0 88 1.4 S 6 7 3 4 1008.7 1008.5 0.0
23/03:30am 25.3 29.5 23.2 88 1.4 S 6 7 3 4 1008.5 1008.3 0.0
23/03:00am 25.1 30.2 22.6 86 1.7 CALM 0 0 0 0 1008.9 1008.7 0.0
23/02:30am 25.6 30.7 23.3 87 1.6 S 2 7 1 4 1009.2 1009.0 0.0
23/02:00am 25.7 29.8 23.0 85 1.8 S 6 7 3 4 1009.6 1009.4 0.0
23/01:30am 26.2 31.5 23.1 83 2.1 CALM 0 6 0 3 1009.9 1009.7 0.0
23/01:00am 27.1 31.8 23.3 80 2.6 WSW 4 7 2 4 1010.0 1009.8 0.0
23/12:30am 27.2 31.9 23.4 80 2.6 WSW 4 11 2 6 1010.3 1010.1 0.0
23/12:00am 27.7 32.1 23.5 78 2.9 W 6 13 3 7 1010.6 1010.4 0.0
 
Date/Time
CST
Temp
°C
App
Temp
°C
Dew
Point
°C
Rel
Hum
%
Delta-T
°C
Wind Press
QNH
hPa
Press
MSL
hPa
Rain since
9am
mm
Dir  Spd
km/h
Gust
km/h
Spd
kts
Gust
kts
22/11:30pm 27.7 32.1 23.5 78 2.9 WNW 6 9 3 5 1010.8 1010.6 0.0
22/11:00pm 27.8 32.4 23.8 79 2.8 W 6 9 3 5 1010.8 1010.6 0.0
22/10:30pm 28.0 32.5 23.6 77 3.0 WNW 6 9 3 5 1010.7 1010.5 0.0
22/10:00pm 28.2 32.2 23.8 77 3.0 WNW 9 15 5 8 1010.3 1010.1 0.0
22/09:30pm 28.2 32.1 23.6 76 3.2 WNW 9 15 5 8 1009.9 1009.7 0.0
22/09:00pm 28.0 32.5 23.6 77 3.0 WNW 6 9 3 5 1009.5 1009.3 0.0
22/08:30pm 27.9 32.4 23.7 78 2.9 NW 6 9 3 5 1008.9 1008.7 0.0
22/08:00pm 28.4 33.0 23.8 76 3.2 WNW 6 9 3 5 1008.6 1008.4 0.0
22/07:30pm 28.8 32.8 23.7 74 3.5 NW 9 17 5 9 1007.9 1007.7 0.0
22/07:00pm 29.2 33.4 24.1 74 3.5 NW 9 13 5 7 1007.3 1007.1 0.0
22/06:30pm 29.6 34.4 24.5 74 3.6 NW 7 15 4 8 1007.0 1006.8 0.0
22/06:00pm 29.5 35.7 24.6 75 3.4 CALM 0 0 0 0 1006.6 1006.4 0.0
22/05:30pm 29.3 35.6 24.8 77 3.2 CALM 0 0 0 0 1006.6 1006.4 0.0
22/05:00pm 28.9 34.7 24.5 77 3.1 W 2 6 1 3 1006.9 1006.7 0.0
22/04:30pm 28.4 34.0 24.2 78 2.9 NW 2 7 1 4 1006.5 1006.3 0.0
22/04:00pm 27.8 31.5 23.2 76 3.1 SSW 9 15 5 8 1007.3 1007.1 0.0
22/03:30pm 28.1 31.2 22.1 70 4.1 SW 9 19 5 10 1007.4 1007.2 0.0
22/03:00pm 30.0 31.1 21.9 62 5.5 NW 19 28 10 15 1007.2 1007.0 0.0
22/02:30pm 32.3 34.6 23.5 59 6.1 N 17 22 9 12 1007.1 1006.9 0.0
22/02:00pm 33.0 37.3 23.6 57 6.5 W 7 17 4 9 1007.6 1007.4 0.0
22/01:30pm 32.7 36.6 23.6 58 6.3 WNW 9 15 5 8 1008.2 1008.0 0.0
22/01:00pm 33.0 37.3 24.2 60 6.2 WNW 9 15 5 8 1008.4 1008.2 0.0
22/12:30pm 31.9 35.3 23.4 60 5.9 WNW 11 17 6 9 1008.8 1008.6 0.0
22/12:00pm 32.5 35.7 22.3 55 7.0 W 9 15 5 8 1009.1 1008.9 0.0
22/11:30am 32.7 36.8 23.9 60 6.1 W 9 17 5 9 1009.5 1009.3 0.0
22/11:00am 31.8 35.5 23.3 60 5.9 W 9 19 5 10 1009.9 1009.7 0.0
22/10:30am 30.9 35.3 23.8 66 4.9 WSW 7 13 4 7 1010.2 1010.0 0.0
22/10:00am 29.8 34.3 23.7 70 4.2 S 6 11 3 6 1010.4 1010.2 0.0
22/09:30am 28.6 32.4 23.5 74 3.5 S 9 13 5 7 1010.5 1010.3 0.0
22/09:00am 27.9 32.3 23.5 77 3.0 S 6 11 3 6 1010.4 1010.2 0.0
22/08:30am 26.7 30.6 23.0 80 2.5 S 7 9 4 5 1010.0 1009.8 0.0
22/08:00am 25.8 30.3 23.7 88 1.4 SSE 6 9 3 5 1009.6 1009.4 0.0
22/07:30am 24.7 29.8 22.6 88 1.4 CALM 0 0 0 0 1009.4 1009.2 0.0
22/07:00am 24.7 28.6 22.6 88 1.4 S 6 7 3 4 1009.2 1009.0 0.0
22/06:30am 24.6 29.5 22.3 87 1.5 CALM 0 0 0 0 1008.8 1008.6 0.0
22/06:00am 24.7 28.8 22.2 86 1.7 S 4 7 2 4 1008.5 1008.3 0.0
22/05:30am 25.0 28.9 22.5 86 1.7 S 6 9 3 5 1008.5 1008.3 0.0
22/05:00am 25.1 28.8 22.6 86 1.7 S 7 9 4 5 1008.4 1008.2 0.0
22/04:30am 25.2 29.3 22.9 87 1.6 SSW 6 7 3 4 1008.2 1008.0 0.0
22/04:00am 25.1 30.4 23.0 88 1.4 CALM 0 0 0 0 1008.3 1008.1 0.0
22/03:30am 25.1 30.3 22.8 87 1.6 CALM 0 0 0 0 1008.3 1008.1 0.0
22/03:00am 25.3 30.6 23.0 87 1.6 CALM 0 0 0 0 1008.7 1008.5 0.0
22/02:30am 25.5 29.7 23.2 87 1.6 S 6 7 3 4 1009.1 1008.9 0.0
22/02:00am 25.5 30.9 23.2 87 1.6 CALM 0 0 0 0 1009.2 1009.0 0.0
22/01:30am 25.6 31.0 23.3 87 1.6 CALM 0 0 0 0 1009.5 1009.3 0.0
22/01:00am 25.6 31.0 23.3 87 1.6 CALM 0 0 0 0 1009.7 1009.5 0.0
22/12:30am 25.7 30.2 23.0 85 1.8 SSE 4 7 2 4 1010.0 1009.8 0.0
22/12:00am 25.9 31.3 23.2 85 1.8 CALM 0 6 0 3 1009.9 1009.7 0.0
 
Date/Time
CST
Temp
°C
App
Temp
°C
Dew
Point
°C
Rel
Hum
%
Delta-T
°C
Wind Press
QNH
hPa
Press
MSL
hPa
Rain since
9am
mm
Dir  Spd
km/h
Gust
km/h
Spd
kts
Gust
kts
21/11:30pm 25.9 30.4 23.0 84 2.0 SE 4 9 2 5 1009.7 1009.5 0.0
21/11:00pm 26.1 30.2 23.0 83 2.1 W 6 13 3 7 1009.9 1009.7 0.0
21/10:30pm 26.0 30.7 22.7 82 2.2 W 2 6 1 3 1009.8 1009.6 0.0
21/10:00pm 25.8 30.7 22.3 81 2.4 CALM 0 0 0 0 1010.0 1009.8 0.0
21/09:30pm 25.6 29.1 21.9 80 2.5 ENE 6 9 3 5 1010.1 1009.9 0.0
21/09:00pm 25.5 27.2 21.6 79 2.6 ENE 15 24 8 13 1009.5 1009.3 0.0
21/08:30pm 27.5 28.5 21.1 68 4.3 E 17 28 9 15 1008.8 1008.6 0.0
21/08:00pm 29.0 32.7 23.2 71 4.0 NW 9 15 5 8 1007.5 1007.3 0.0
21/07:30pm 29.3 32.4 22.8 68 4.4 NW 11 17 6 9 1006.8 1006.6 0.0
21/07:00pm 29.9 33.1 23.1 67 4.7 NW 11 19 6 10 1006.5 1006.3 0.0
21/06:30pm 31.1 33.7 22.7 61 5.8 WNW 13 22 7 12 1006.0 1005.8 0.0
21/06:00pm 31.6 34.0 22.3 57 6.3 WNW 13 20 7 11 1005.5 1005.3 0.0
21/05:30pm 32.7 35.4 22.8 56 6.8 WNW 13 24 7 13 1005.5 1005.3 0.0
21/05:00pm 32.9 36.2 23.8 58 6.3 NW 13 24 7 13 1005.5 1005.3 0.0
21/04:30pm 33.6 36.1 22.4 52 7.7 NW 13 19 7 10 1005.6 1005.4 0.0
21/04:00pm 33.5 37.1 24.4 59 6.4 NW 13 19 7 10 1005.6 1005.4 0.0
21/03:30pm 32.2 35.3 22.9 58 6.4 NW 11 17 6 9 1006.2 1006.0 0.0
21/03:00pm 33.7 36.9 23.1 54 7.3 NW 11 20 6 11 1006.3 1006.1 0.0
21/02:30pm 32.8 34.6 22.6 55 7.0 NW 17 24 9 13 1006.9 1006.7 0.0
21/02:00pm 32.4 34.3 22.8 57 6.6 NW 17 28 9 15 1007.4 1007.2 0.0
21/01:30pm 32.4 33.8 22.8 57 6.6 NNW 20 33 11 18 1008.1 1007.9 0.0
21/01:00pm 33.1 36.7 23.7 57 6.5 WNW 11 20 6 11 1008.6 1008.4 0.0
21/12:30pm 31.9 34.4 23.2 60 6.0 NNW 15 24 8 13 1009.1 1008.9 0.0
21/12:00pm 32.4 36.2 23.4 59 6.2 W 9 20 5 11 1009.3 1009.1 0.0
21/11:30am 32.3 36.9 24.1 62 5.7 NW 7 17 4 9 1009.6 1009.4 0.0
21/11:00am 31.9 36.3 23.4 60 5.9 NNW 6 11 3 6 1009.6 1009.4 0.0
21/10:30am 31.0 35.7 23.9 66 4.9 NW 6 11 3 6 1009.5 1009.3 0.0
21/10:00am 30.0 34.8 24.2 71 4.0 SW 6 9 3 5 1009.6 1009.4 0.0
21/09:30am 29.1 34.4 24.4 76 3.3 SSW 4 7 2 4 1009.4 1009.2 0.0
21/09:00am 28.2 33.1 24.6 81 2.5 S 7 9 4 5 1009.3 1009.1 0.0
21/08:30am 27.3 32.7 25.1 88 1.5 S 6 7 3 4 1009.2 1009.0 0.0
21/08:00am 26.2 32.3 24.4 90 1.2 CALM 0 0 0 0 1009.0 1008.8 0.0
21/07:30am 25.3 30.9 23.5 90 1.2 CALM 0 0 0 0 1009.0 1008.8 0.0
21/07:00am 25.4 31.0 23.6 90 1.2 CALM 0 0 0 0 1008.7 1008.5 0.0
21/06:30am 25.4 31.0 23.6 90 1.2 CALM 0 0 0 0 1008.5 1008.3 0.0
21/06:00am 25.2 30.3 23.4 90 1.2 S 2 6 1 3 1008.0 1007.8 0.0
21/05:30am 24.9 30.2 23.0 89 1.3 CALM 0 0 0 0 1007.9 1007.7 0.0
21/05:00am 25.1 30.5 23.2 89 1.3 CALM 0 0 0 0 1007.7 1007.5 0.0
21/04:30am 25.4 31.0 23.5 89 1.3 CALM 0 0 0 0 1007.6 1007.4 0.0
21/04:00am 25.6 31.3 23.7 89 1.3 CALM 0 0 0 0 1007.9 1007.7 0.0
21/03:30am 26.0 31.8 24.0 89 1.4 CALM 0 0 0 0 1008.1 1007.9 0.0
21/03:00am 25.9 31.7 23.9 89 1.4 CALM 0 0 0 0 1008.3 1008.1 0.0
21/02:30am 25.9 31.7 23.9 89 1.4 CALM 0 0 0 0 1008.4 1008.2 0.0
21/02:00am 25.8 31.5 23.8 89 1.4 CALM 0 0 0 0 1008.8 1008.6 0.0
21/01:30am 25.9 31.7 23.9 89 1.4 CALM 0 0 0 0 1008.8 1008.6 0.0
21/01:00am 25.8 31.5 23.8 89 1.4 CALM 0 0 0 0 1008.9 1008.7 0.0
21/12:30am 25.9 31.6 23.8 88 1.4 CALM 0 0 0 0 1009.2 1009.0 0.0
21/12:00am 26.1 31.9 24.0 88 1.4 CALM 0 0 0 0 1009.4 1009.2 0.0
 
Date/Time
CST
Temp
°C
App
Temp
°C
Dew
Point
°C
Rel
Hum
%
Delta-T
°C
Wind Press
QNH
hPa
Press
MSL
hPa
Rain since
9am
mm
Dir  Spd
km/h
Gust
km/h
Spd
kts
Gust
kts
20/11:30pm 26.0 31.7 23.7 87 1.6 CALM 0 0 0 0 1009.3 1009.1 0.0
20/11:00pm 26.2 31.9 23.7 86 1.7 CALM 0 0 0 0 1009.1 1008.9 0.0
20/10:30pm 26.9 31.5 23.8 83 2.1 NW 6 7 3 4 1009.1 1008.9 0.0
20/10:00pm 27.5 31.9 24.4 83 2.2 NW 9 11 5 6 1009.1 1008.9 0.0
20/09:30pm 26.9 32.4 24.0 84 2.0 NNW 2 6 1 3 1008.5 1008.3 0.0
20/09:00pm 26.9 32.4 24.0 84 2.0 NNW 2 7 1 4 1007.9 1007.7 0.0
20/08:30pm 27.2 31.9 23.9 82 2.3 NNW 6 7 3 4 1007.5 1007.3 0.0
20/08:00pm 27.6 32.3 24.0 81 2.5 N 6 7 3 4 1007.1 1006.9 0.0
20/07:30pm 28.0 32.3 24.2 80 2.6 N 9 13 5 7 1006.7 1006.5 0.0
20/07:00pm 28.1 32.3 24.1 79 2.8 N 9 13 5 7 1006.7 1006.5 0.0
20/06:30pm 28.6 32.5 24.2 77 3.1 NNW 11 15 6 8 1006.6 1006.4 0.0
20/06:00pm 29.0 32.8 24.1 75 3.4 NNW 11 15 6 8 1006.4 1006.2 0.0
20/05:30pm 29.2 33.1 24.3 75 3.4 N 11 15 6 8 1006.2 1006.0 0.0
20/05:00pm 29.6 32.7 24.2 73 3.8 NNW 15 22 8 12 1006.0 1005.8 0.0
20/04:30pm 30.2 33.4 23.1 65 4.9 NW 11 15 6 8 1006.1 1005.9 0.0
20/04:00pm 30.1 34.1 23.8 69 4.4 N 9 15 5 8 1006.2 1006.0 0.0
20/03:30pm 29.9 34.5 24.1 71 4.0 E 7 13 4 7 1006.8 1006.6 0.0
20/03:00pm 29.7 33.5 23.4 69 4.3 NE 9 17 5 9 1007.3 1007.1 0.0
20/02:30pm 31.6 32.8 21.5 55 6.8 N 17 26 9 14 1007.4 1007.2 0.0
20/02:00pm 32.3 34.8 23.8 61 5.9 N 17 24 9 13 1007.6 1007.4 0.0
20/01:30pm 32.5 35.9 24.0 61 5.9 NNW 13 19 7 10 1008.0 1007.8 0.0

Other Formats:

Comma delimited format used in spreadsheet applications
http://www.bom.gov.au/fwo/IDD60801/IDD60801.94100.axf

JavaScript Object Notation format (JSON) in row-major order
http://www.bom.gov.au/fwo/IDD60801/IDD60801.94100.json